createdAt,value
2023-03-07T00:01:26.888Z,13.30
2023-03-07T00:03:55.795Z,13.63
2023-03-07T00:06:24.724Z,13.80
2023-03-07T00:08:53.863Z,14.50
2023-03-07T00:11:22.469Z,13.83
2023-03-07T00:13:50.825Z,14.80
2023-03-07T00:16:22.194Z,14.97
2023-03-07T00:18:53.150Z,14.90
2023-03-07T00:21:23.519Z,13.97
2023-03-07T00:23:54.077Z,13.23
2023-03-07T00:26:24.687Z,14.50
2023-03-07T00:28:54.779Z,13.13
2023-03-07T00:31:24.188Z,14.03
2023-03-07T00:33:53.954Z,14.80
2023-03-07T00:36:24.155Z,16.40
2023-03-07T00:38:53.237Z,15.37
2023-03-07T00:41:23.261Z,16.27
2023-03-07T00:43:52.305Z,14.80
2023-03-07T00:46:22.410Z,15.57
2023-03-07T00:48:51.282Z,16.13
2023-03-07T00:51:21.758Z,15.13
2023-03-07T00:53:50.100Z,14.97
2023-03-07T00:56:20.482Z,17.13
2023-03-07T00:58:49.628Z,16.27
2023-03-07T01:01:20.793Z,16.23
2023-03-07T01:03:50.409Z,16.77
2023-03-07T01:06:22.835Z,15.60
2023-03-07T01:08:51.212Z,15.60
2023-03-07T01:11:19.663Z,15.93
2023-03-07T01:13:48.113Z,16.60
2023-03-07T01:16:19.514Z,15.20
2023-03-07T01:18:50.907Z,16.37
2023-03-07T01:21:22.869Z,14.73
2023-03-07T01:23:51.406Z,14.03
2023-03-07T01:26:21.780Z,13.97
2023-03-07T01:28:52.552Z,14.33
2023-03-07T01:31:21.867Z,14.87
2023-03-07T01:33:51.570Z,15.00
2023-03-07T01:36:25.475Z,14.67
2023-03-07T01:38:56.632Z,17.13
2023-03-07T01:41:29.774Z,14.60
2023-03-07T01:43:58.049Z,14.57
2023-03-07T01:46:47.231Z,14.87
2023-03-07T01:49:24.083Z,14.60
2023-03-07T01:51:59.137Z,14.60
2023-03-07T01:54:28.567Z,16.33
2023-03-07T01:56:57.333Z,14.37
2023-03-07T01:59:31.057Z,14.43
2023-03-07T02:02:04.845Z,14.27
2023-03-07T02:04:38.182Z,13.93
2023-03-07T02:07:10.167Z,12.40
2023-03-07T02:09:40.142Z,12.30
2023-03-07T02:12:10.223Z,12.53
2023-03-07T02:14:39.524Z,13.67
2023-03-07T02:17:08.161Z,13.47
2023-03-07T02:19:49.740Z,12.77
2023-03-07T02:22:20.786Z,12.10
2023-03-07T02:24:54.436Z,12.30
2023-03-07T02:27:25.930Z,13.27
2023-03-07T02:29:54.536Z,13.40
2023-03-07T02:32:23.178Z,11.67
2023-03-07T02:34:51.570Z,13.70
2023-03-07T02:37:23.885Z,13.00
2023-03-07T02:39:52.291Z,11.37
2023-03-07T02:42:25.966Z,12.77
2023-03-07T02:44:58.858Z,12.80
2023-03-07T02:47:27.729Z,13.43
2023-03-07T02:49:56.060Z,12.93
2023-03-07T02:52:25.310Z,12.97
2023-03-07T02:54:53.737Z,13.80
2023-03-07T02:57:22.026Z,13.07
2023-03-07T02:59:54.665Z,12.87
2023-03-07T03:02:23.142Z,12.80
2023-03-07T03:04:51.694Z,12.33
2023-03-07T03:07:20.061Z,12.67
2023-03-07T03:09:48.506Z,13.80
2023-03-07T03:12:17.011Z,13.37
2023-03-07T03:14:45.339Z,13.50
2023-03-07T03:17:15.206Z,11.33
2023-03-07T03:19:43.846Z,11.73
2023-03-07T03:22:12.371Z,12.90
2023-03-07T03:24:41.682Z,12.33
2023-03-07T03:27:10.856Z,13.30
2023-03-07T03:29:39.653Z,12.33
2023-03-07T03:32:08.831Z,12.03
2023-03-07T03:34:39.112Z,12.70
2023-03-07T03:37:08.020Z,13.57
2023-03-07T03:39:36.340Z,12.77
2023-03-07T03:42:06.338Z,11.97
2023-03-07T03:44:34.730Z,15.30
2023-03-07T03:47:04.269Z,14.90
2023-03-07T03:49:33.208Z,14.27
2023-03-07T03:52:02.930Z,13.00
2023-03-07T03:54:31.229Z,13.60
2023-03-07T03:56:59.612Z,14.00
2023-03-07T03:59:28.159Z,14.70
2023-03-07T04:01:56.598Z,13.60
2023-03-07T04:04:25.139Z,14.10
2023-03-07T04:06:53.626Z,13.80
2023-03-07T04:09:24.367Z,12.50
2023-03-07T04:11:52.822Z,14.30
2023-03-07T04:14:21.188Z,13.73
2023-03-07T04:16:49.591Z,13.77
2023-03-07T04:19:18.221Z,13.63
2023-03-07T04:21:46.656Z,13.17
2023-03-07T04:24:14.960Z,13.70
2023-03-07T04:26:44.756Z,14.20
2023-03-07T04:29:13.233Z,15.97
2023-03-07T04:31:41.887Z,16.70
2023-03-07T04:34:10.434Z,19.23
2023-03-07T04:36:38.859Z,18.00
2023-03-07T04:39:07.228Z,17.77
2023-03-07T04:41:35.528Z,18.13
2023-03-07T04:44:05.595Z,18.93
2023-03-07T04:46:33.899Z,20.50
2023-03-07T04:49:02.467Z,18.83
2023-03-07T04:51:31.178Z,19.07
2023-03-07T04:53:59.571Z,15.47
2023-03-07T04:56:28.130Z,16.07
2023-03-07T04:58:56.419Z,17.13
2023-03-07T05:01:26.189Z,17.60
2023-03-07T05:03:55.650Z,16.10
2023-03-07T05:06:24.874Z,13.77
2023-03-07T05:08:53.218Z,16.23
2023-03-07T05:11:22.713Z,15.87
2023-03-07T05:13:51.001Z,15.63
2023-03-07T05:16:19.383Z,15.03
2023-03-07T05:18:49.348Z,15.23
2023-03-07T05:21:17.799Z,15.90
2023-03-07T05:23:46.152Z,13.20
2023-03-07T05:26:14.529Z,12.90
2023-03-07T05:28:42.861Z,12.40
2023-03-07T05:31:11.321Z,13.57
2023-03-07T05:33:42.734Z,14.40
2023-03-07T05:36:12.530Z,11.30
2023-03-07T05:38:40.976Z,12.50
2023-03-07T05:41:09.428Z,12.77
2023-03-07T05:43:37.885Z,12.90
2023-03-07T05:46:06.586Z,13.43
2023-03-07T05:48:34.990Z,13.63
2023-03-07T05:51:03.441Z,12.97
2023-03-07T05:53:33.235Z,13.60
2023-03-07T05:56:01.637Z,12.60
2023-03-07T05:58:30.178Z,14.17
2023-03-07T06:00:58.522Z,13.37
2023-03-07T06:03:26.949Z,15.73
2023-03-07T06:05:55.287Z,16.37
2023-03-07T06:08:23.743Z,14.33
2023-03-07T06:10:53.748Z,15.57
2023-03-07T06:13:24.457Z,14.63
2023-03-07T06:15:53.922Z,12.37
2023-03-07T06:18:23.990Z,12.90
2023-03-07T06:20:59.960Z,12.33
2023-03-07T06:23:29.130Z,10.63
2023-03-07T06:26:02.225Z,12.27
2023-03-07T06:28:32.796Z,15.00
2023-03-07T06:31:01.467Z,14.97
2023-03-07T06:33:30.426Z,16.27
2023-03-07T06:35:58.781Z,19.33
2023-03-07T06:38:28.087Z,16.40
2023-03-07T06:40:57.554Z,19.63
2023-03-07T06:43:27.350Z,18.40
2023-03-07T06:45:55.871Z,13.77
2023-03-07T06:48:24.430Z,11.27
2023-03-07T06:50:52.900Z,10.23
2023-03-07T06:53:21.510Z,11.83
2023-03-07T06:55:50.994Z,11.77
2023-03-07T06:58:19.785Z,12.17
2023-03-07T07:00:49.597Z,11.43
2023-03-07T07:03:20.728Z,11.47
2023-03-07T07:05:49.102Z,12.03
2023-03-07T07:08:17.396Z,12.07
2023-03-07T07:10:46.945Z,12.53
2023-03-07T07:13:15.239Z,11.13
2023-03-07T07:15:43.601Z,11.37
2023-03-07T07:18:15.197Z,11.37
2023-03-07T07:20:44.409Z,13.03
2023-03-07T07:23:12.797Z,12.47
2023-03-07T07:25:41.094Z,12.63
2023-03-07T07:28:09.570Z,12.93
2023-03-07T07:30:37.904Z,12.63
2023-03-07T07:33:06.341Z,11.40
2023-03-07T07:35:36.099Z,11.60
2023-03-07T07:38:04.718Z,11.50
2023-03-07T07:40:33.059Z,13.20
2023-03-07T07:43:01.377Z,12.83
2023-03-07T07:45:29.675Z,11.93
2023-03-07T07:47:58.092Z,12.53
2023-03-07T07:50:26.413Z,14.40
2023-03-07T07:52:56.205Z,11.80
2023-03-07T07:55:25.086Z,13.37
2023-03-07T07:57:54.161Z,12.00
2023-03-07T08:00:22.998Z,15.07
2023-03-07T08:02:52.211Z,11.30
2023-03-07T08:05:21.570Z,10.13
2023-03-07T08:07:50.968Z,13.10
2023-03-07T08:10:21.882Z,16.00
2023-03-07T08:12:52.238Z,16.03
2023-03-07T08:15:23.017Z,17.97
2023-03-07T08:17:52.609Z,18.53
2023-03-07T08:20:22.578Z,16.87
2023-03-07T08:22:53.078Z,15.63
2023-03-07T08:25:25.646Z,17.20
2023-03-07T08:27:55.524Z,17.17
2023-03-07T08:30:24.954Z,16.63
2023-03-07T08:32:54.544Z,17.77
2023-03-07T08:35:23.768Z,16.57
2023-03-07T08:37:55.985Z,16.87
2023-03-07T08:40:26.313Z,16.80
2023-03-07T08:42:55.358Z,16.93
2023-03-07T08:45:24.159Z,16.53
2023-03-07T08:47:54.571Z,16.63
2023-03-07T08:50:23.468Z,16.90
2023-03-07T08:52:51.821Z,14.90
2023-03-07T08:55:20.580Z,14.67
2023-03-07T08:57:50.476Z,15.97
2023-03-07T09:00:19.685Z,15.50
2023-03-07T09:02:48.138Z,16.00
2023-03-07T09:05:16.547Z,14.33
2023-03-07T09:07:44.980Z,13.47
2023-03-07T09:10:13.394Z,14.27
2023-03-07T09:12:41.748Z,12.83
2023-03-07T09:15:12.516Z,14.03
2023-03-07T09:17:41.051Z,12.33
2023-03-07T09:20:11.995Z,13.00
2023-03-07T09:22:40.276Z,16.00
2023-03-07T09:25:09.439Z,13.10
2023-03-07T09:27:37.817Z,11.57
2023-03-07T09:30:07.381Z,12.87
2023-03-07T09:32:37.584Z,11.27
2023-03-07T09:35:06.698Z,11.37
2023-03-07T09:37:34.954Z,11.30
2023-03-07T09:40:05.164Z,11.00
2023-03-07T09:42:41.517Z,11.70
2023-03-07T09:45:22.750Z,10.37
2023-03-07T09:48:10.173Z,10.10
2023-03-07T09:50:45.636Z,9.90
2023-03-07T09:53:21.776Z,9.60
2023-03-07T09:55:52.882Z,9.17
2023-03-07T09:58:24.945Z,8.67
2023-03-07T10:01:00.046Z,9.47
2023-03-07T10:03:43.004Z,9.00
2023-03-07T10:06:16.020Z,9.60
2023-03-07T10:08:44.511Z,9.80
2023-03-07T10:11:24.851Z,9.70
2023-03-07T10:14:10.160Z,9.17
2023-03-07T10:16:46.646Z,8.00
2023-03-07T10:19:26.615Z,8.27
2023-03-07T10:22:04.835Z,8.57
2023-03-07T10:24:49.116Z,8.90
2023-03-07T10:27:17.685Z,9.50
2023-03-07T10:29:48.759Z,9.33
2023-03-07T10:32:33.414Z,8.70
2023-03-07T10:35:16.250Z,8.77
2023-03-07T10:37:50.488Z,8.80
2023-03-07T10:40:26.932Z,9.00
2023-03-07T10:42:56.408Z,9.87
2023-03-07T10:45:24.889Z,10.00
2023-03-07T10:47:53.240Z,10.37
2023-03-07T10:50:32.633Z,10.00
2023-03-07T10:53:03.731Z,9.30
2023-03-07T10:55:43.016Z,10.23
2023-03-07T10:58:16.950Z,9.90
2023-03-07T11:00:45.847Z,11.20
2023-03-07T11:03:28.255Z,10.90
2023-03-07T11:06:00.024Z,11.77
2023-03-07T11:08:31.893Z,11.47
2023-03-07T11:11:01.286Z,11.83
2023-03-07T11:13:30.412Z,10.50
2023-03-07T11:16:17.877Z,10.80
2023-03-07T11:18:46.491Z,11.03
2023-03-07T11:21:33.766Z,11.53
2023-03-07T11:24:04.857Z,9.87
2023-03-07T11:26:40.481Z,10.20
2023-03-07T11:29:10.593Z,11.00
2023-03-07T11:31:53.167Z,10.23
2023-03-07T11:34:45.306Z,9.73
2023-03-07T11:37:33.177Z,9.80
2023-03-07T11:40:19.859Z,11.30
2023-03-07T11:43:00.600Z,9.90
2023-03-07T11:45:40.150Z,9.13
2023-03-07T11:48:20.329Z,8.90
2023-03-07T11:50:54.565Z,8.70
2023-03-07T11:53:44.616Z,9.30
2023-03-07T11:56:26.225Z,10.77
2023-03-07T11:59:36.590Z,10.00
2023-03-07T12:02:22.330Z,8.73
2023-03-07T12:05:21.570Z,9.80
2023-03-07T12:08:04.703Z,8.90
2023-03-07T12:10:50.175Z,9.80
2023-03-07T12:13:31.954Z,8.40
2023-03-07T12:16:09.365Z,8.10
2023-03-07T12:19:02.327Z,8.77
2023-03-07T12:21:46.091Z,9.33
2023-03-07T12:24:19.253Z,10.73
2023-03-07T12:26:55.300Z,9.07
2023-03-07T12:29:35.805Z,9.10
2023-03-07T12:32:11.171Z,9.73
2023-03-07T12:34:45.297Z,10.00
2023-03-07T12:37:17.997Z,10.63
2023-03-07T12:39:51.880Z,9.70
2023-03-07T12:42:32.302Z,9.70
2023-03-07T12:45:06.322Z,9.90
2023-03-07T12:47:50.538Z,9.53
2023-03-07T12:50:25.096Z,10.23
2023-03-07T12:52:57.732Z,9.60
2023-03-07T12:55:30.842Z,9.70
2023-03-07T12:58:08.529Z,10.77
2023-03-07T13:00:41.527Z,9.50
2023-03-07T13:03:18.356Z,9.20
2023-03-07T13:05:47.062Z,10.00
2023-03-07T13:08:23.560Z,10.20
2023-03-07T13:10:52.461Z,10.23
2023-03-07T13:13:57.104Z,8.87
2023-03-07T13:16:41.147Z,9.63
2023-03-07T13:19:49.491Z,9.50
2023-03-07T13:23:00.260Z,8.10
2023-03-07T13:25:57.251Z,8.60
2023-03-07T13:28:52.539Z,8.40
2023-03-07T13:34:46.980Z,7.20
2023-03-07T13:37:45.562Z,8.03
2023-03-07T13:40:39.290Z,6.23
2023-03-07T13:43:57.946Z,5.57
2023-03-07T13:46:51.257Z,4.10
2023-03-07T13:49:45.657Z,3.90
2023-03-07T13:52:39.247Z,4.00
2023-03-07T13:55:26.298Z,3.77
2023-03-07T13:57:58.237Z,3.80
2023-03-07T14:00:32.587Z,3.07
2023-03-07T14:03:01.074Z,3.50
2023-03-07T14:05:34.750Z,3.23
2023-03-07T14:08:03.850Z,2.77
2023-03-07T14:10:33.155Z,2.57
2023-03-07T14:13:29.707Z,2.80
2023-03-07T14:16:25.218Z,2.67
2023-03-07T14:19:04.482Z,2.87
2023-03-07T14:21:45.729Z,3.30
2023-03-07T14:24:27.709Z,3.13
2023-03-07T14:27:00.876Z,2.83
2023-03-07T14:29:31.120Z,3.10
2023-03-07T14:32:01.134Z,4.03
2023-03-07T14:34:33.140Z,3.60
2023-03-07T14:37:06.572Z,3.40
2023-03-07T14:39:49.902Z,3.80
2023-03-07T14:42:27.111Z,3.77
2023-03-07T14:45:20.158Z,3.23
2023-03-07T14:48:10.849Z,4.20
2023-03-07T14:50:44.341Z,4.13
2023-03-07T14:53:21.923Z,5.70
2023-03-07T14:55:52.788Z,6.13
2023-03-07T14:58:24.492Z,4.40
2023-03-07T15:01:00.635Z,3.60
2023-03-07T15:03:29.811Z,3.47
2023-03-07T15:05:59.923Z,3.67
2023-03-07T15:08:32.075Z,3.00
2023-03-07T15:11:06.529Z,3.30
2023-03-07T15:13:39.729Z,3.17
2023-03-07T15:16:13.843Z,3.10
2023-03-07T15:18:45.992Z,3.20
2023-03-07T15:21:20.839Z,2.73
2023-03-07T15:23:55.260Z,3.00
2023-03-07T15:26:26.108Z,3.10
2023-03-07T15:29:01.513Z,3.20
2023-03-07T15:31:33.966Z,3.50
2023-03-07T15:34:13.287Z,3.70
2023-03-07T15:36:41.768Z,4.00
2023-03-07T15:39:33.566Z,3.17
2023-03-07T15:42:07.534Z,2.83
2023-03-07T15:44:36.504Z,2.70
2023-03-07T15:47:14.002Z,2.50
2023-03-07T15:49:44.218Z,2.50
2023-03-07T15:52:28.114Z,2.90
2023-03-07T15:54:59.625Z,3.10
2023-03-07T15:57:32.690Z,2.50
2023-03-07T16:00:02.971Z,2.97
2023-03-07T16:02:47.414Z,2.23
2023-03-07T16:05:33.087Z,2.73
2023-03-07T16:08:01.627Z,3.07
2023-03-07T16:10:33.026Z,3.57
2023-03-07T16:13:03.929Z,3.53
2023-03-07T16:15:32.524Z,3.50
2023-03-07T16:18:00.885Z,3.60
2023-03-07T16:20:30.323Z,4.00
2023-03-07T16:22:59.016Z,4.10
2023-03-07T16:25:32.179Z,3.60
2023-03-07T16:28:01.165Z,4.10
2023-03-07T16:30:30.577Z,4.20
2023-03-07T16:32:58.903Z,3.87
2023-03-07T16:35:29.271Z,8.00
2023-03-07T16:37:57.733Z,8.10
2023-03-07T16:40:27.333Z,11.23
2023-03-07T16:42:57.058Z,6.90
2023-03-07T16:45:27.778Z,3.57
2023-03-07T16:47:59.574Z,4.50
2023-03-07T16:50:30.068Z,4.67
2023-03-07T16:52:58.490Z,6.70
2023-03-07T16:55:28.548Z,7.10
2023-03-07T16:58:03.057Z,6.30
2023-03-07T17:00:31.984Z,6.87
2023-03-07T17:03:02.314Z,8.30
2023-03-07T17:05:30.879Z,4.47
2023-03-07T17:08:00.377Z,4.87
2023-03-07T17:10:29.786Z,5.73
2023-03-07T17:13:01.527Z,5.63
2023-03-07T17:15:32.323Z,5.63
2023-03-07T17:18:01.651Z,4.23
2023-03-07T17:20:30.155Z,5.20
2023-03-07T17:22:58.532Z,3.77
2023-03-07T17:25:28.433Z,3.93
2023-03-07T17:28:02.672Z,6.30
2023-03-07T17:30:33.211Z,5.30
2023-03-07T17:33:02.366Z,5.80
2023-03-07T17:35:30.987Z,16.87
2023-03-07T17:37:59.628Z,12.03
2023-03-07T17:40:28.156Z,12.00
2023-03-07T17:42:57.542Z,13.10
2023-03-07T17:45:27.312Z,14.30
2023-03-07T17:47:56.735Z,14.40
2023-03-07T17:50:25.715Z,15.43
2023-03-07T17:52:55.542Z,13.50
2023-03-07T17:55:26.194Z,17.27
2023-03-07T17:57:54.806Z,9.50
2023-03-07T18:00:24.280Z,6.37
2023-03-07T18:02:54.143Z,14.63
2023-03-07T18:05:26.385Z,12.30
2023-03-07T18:07:55.358Z,8.50
2023-03-07T18:10:23.988Z,7.73
2023-03-07T18:12:53.965Z,6.50
2023-03-07T18:15:23.563Z,4.10
2023-03-07T18:17:53.384Z,3.50
2023-03-07T18:20:22.671Z,3.90
2023-03-07T18:22:51.408Z,4.70
2023-03-07T18:25:20.176Z,7.20
2023-03-07T18:27:48.842Z,5.07
2023-03-07T18:30:17.964Z,4.57
2023-03-07T18:32:46.441Z,3.67
2023-03-07T18:35:16.850Z,4.00
2023-03-07T18:37:45.717Z,4.00
2023-03-07T18:40:15.010Z,4.73
2023-03-07T18:42:43.713Z,7.73
2023-03-07T18:45:13.345Z,7.20
2023-03-07T18:47:41.676Z,6.70
2023-03-07T18:50:11.704Z,8.40
2023-03-07T18:52:41.592Z,6.40
2023-03-07T18:55:10.954Z,4.67
2023-03-07T18:57:39.388Z,5.40
2023-03-07T19:00:11.420Z,4.97
2023-03-07T19:02:40.290Z,3.50
2023-03-07T19:05:10.803Z,4.27
2023-03-07T19:07:40.731Z,4.70
2023-03-07T19:10:10.220Z,4.73
2023-03-07T19:12:38.658Z,4.00
2023-03-07T19:15:08.048Z,3.37
2023-03-07T19:17:41.204Z,3.97
2023-03-07T19:20:11.076Z,4.00
2023-03-07T19:22:40.862Z,4.10
2023-03-07T19:25:10.121Z,4.23
2023-03-07T19:27:38.693Z,4.03
2023-03-07T19:30:08.244Z,4.30
2023-03-07T19:32:36.640Z,4.00
2023-03-07T19:35:06.633Z,4.90
2023-03-07T19:37:36.797Z,4.83
2023-03-07T19:40:08.389Z,4.13
2023-03-07T19:42:36.935Z,3.40
2023-03-07T19:45:07.144Z,3.70
2023-03-07T19:47:35.509Z,3.90
2023-03-07T19:50:03.838Z,4.33
2023-03-07T19:52:32.291Z,3.40
2023-03-07T19:55:00.764Z,3.40
2023-03-07T19:57:30.586Z,3.60
2023-03-07T19:59:58.945Z,3.70
2023-03-07T20:02:29.463Z,4.40
2023-03-07T20:04:58.932Z,3.80
2023-03-07T20:07:27.391Z,3.83
2023-03-07T20:09:55.783Z,3.93
2023-03-07T20:12:24.208Z,5.60
2023-03-07T20:14:54.161Z,5.10
2023-03-07T20:17:22.569Z,4.50
2023-03-07T20:19:52.006Z,4.07
2023-03-07T20:22:20.776Z,4.07
2023-03-07T20:24:51.049Z,4.17
2023-03-07T20:27:21.973Z,3.73
2023-03-07T20:29:50.532Z,4.03
2023-03-07T20:32:20.809Z,3.70
2023-03-07T20:34:52.840Z,3.80
2023-03-07T20:37:21.405Z,4.60
2023-03-07T20:39:49.780Z,4.40
2023-03-07T20:42:18.087Z,4.10
2023-03-07T20:44:46.607Z,3.60
2023-03-07T20:47:14.998Z,3.23
2023-03-07T20:49:45.290Z,3.30
2023-03-07T20:52:14.202Z,4.23
2023-03-07T20:54:44.192Z,3.20
2023-03-07T20:57:12.602Z,3.83
2023-03-07T20:59:40.928Z,4.20
2023-03-07T21:02:09.403Z,4.10
2023-03-07T21:04:37.971Z,4.20
2023-03-07T21:07:07.650Z,5.30
2023-03-07T21:09:36.120Z,4.53
2023-03-07T21:12:05.487Z,4.47
2023-03-07T21:14:33.846Z,3.87
2023-03-07T21:17:04.093Z,4.00
2023-03-07T21:19:32.484Z,4.10
2023-03-07T21:22:00.936Z,3.97
2023-03-07T21:24:30.722Z,3.70
2023-03-07T21:26:59.416Z,3.90
2023-03-07T21:29:27.739Z,5.37
2023-03-07T21:31:56.161Z,4.47
2023-03-07T21:34:24.567Z,5.70
2023-03-07T21:36:56.287Z,4.90
2023-03-07T21:39:25.987Z,5.33
2023-03-07T21:41:56.074Z,5.30
2023-03-07T21:44:24.450Z,5.27
2023-03-07T21:46:52.780Z,6.50
2023-03-07T21:49:22.287Z,6.10
2023-03-07T21:51:50.710Z,6.93
2023-03-07T21:54:19.075Z,7.03
2023-03-07T21:56:47.545Z,7.37
2023-03-07T21:59:17.298Z,7.83
2023-03-07T22:01:45.629Z,8.23
2023-03-07T22:04:14.005Z,6.03
2023-03-07T22:06:42.433Z,7.63
2023-03-07T22:09:10.754Z,7.37
2023-03-07T22:11:39.137Z,6.30
2023-03-07T22:14:07.532Z,6.80
2023-03-07T22:16:37.354Z,8.40
2023-03-07T22:19:05.726Z,6.73
2023-03-07T22:21:34.869Z,6.10
2023-03-07T22:24:03.330Z,6.07
2023-03-07T22:26:32.939Z,5.50
2023-03-07T22:29:02.810Z,5.70
2023-03-07T22:31:31.547Z,5.90
2023-03-07T22:34:01.459Z,5.60
2023-03-07T22:36:29.932Z,5.90
2023-03-07T22:38:58.610Z,5.73
2023-03-07T22:41:27.292Z,4.97
2023-03-07T22:43:55.928Z,5.80
2023-03-07T22:46:24.665Z,5.60
2023-03-07T22:48:54.229Z,5.13
2023-03-07T22:51:25.577Z,4.93
2023-03-07T22:53:54.076Z,5.43
2023-03-07T22:56:24.958Z,5.40
2023-03-07T22:58:53.443Z,5.20
2023-03-07T23:01:23.545Z,4.53
2023-03-07T23:03:52.744Z,4.67
2023-03-07T23:06:24.408Z,4.50
2023-03-07T23:08:54.715Z,5.70
2023-03-07T23:11:25.636Z,5.30
2023-03-07T23:13:54.705Z,7.90
2023-03-07T23:16:24.438Z,13.60
2023-03-07T23:18:54.992Z,8.23
2023-03-07T23:21:27.657Z,7.50
2023-03-07T23:23:57.199Z,8.03
2023-03-07T23:26:27.796Z,9.50
2023-03-07T23:28:56.451Z,9.77
2023-03-07T23:31:26.533Z,7.60
2023-03-07T23:33:57.176Z,7.10
2023-03-07T23:36:29.017Z,8.00
2023-03-07T23:38:58.296Z,8.10
2023-03-07T23:41:27.163Z,7.97
2023-03-07T23:43:56.396Z,8.37
2023-03-07T23:46:25.337Z,7.70
2023-03-07T23:48:54.184Z,7.53
2023-03-07T23:51:22.957Z,8.57
2023-03-07T23:53:52.883Z,7.70
2023-03-07T23:56:21.639Z,8.33
2023-03-07T23:58:51.534Z,8.47
